Flight Track Log - Related Links

Times and Time Zones

All times are in EST time to prevent confusion due to time zone crossing. See the UAL4498 flight status page for this flight to view local times or setup timezone preferences in your user account.

Time Position Orientation Groundspeed Altitude Reporting Facility
EST Latitude Longitude Course Direction KTS MPH feet Rate Location/Type
Tue 07:15:13 PM 40.6333 -74.2000 45° Northeast 194 223 2,600  Level New York TRACON
Tue 07:16:19 PM 40.6667 -74.2167 339° North 221 254 5,000 2,048 Climbing New York TRACON
Tue 07:17:19 PM 40.7333 -74.1667 30° Northeast 261 300 6,900 2,150 Climbing New York TRACON
Tue 07:18:19 PM 40.7667 -74.0833 62° Northeast 282 325 9,300 1,684 Climbing New York TRACON
Tue 07:19:13 PM 40.8167 -74.0000 52° Northeast 314 361 10,100 579 Climbing New York TRACON
Tue 07:20:00 PM 41.0883 -73.6809 45° Northeast  Level Estimated
Tue 07:20:13 PM 40.8667 -73.8833 60° Northeast 365 420 10,400  Level New York TRACON
Tue 07:22:23 PM 41.0172 -73.7147 40° Northeast 342 394 14,000 1,539 Climbing Boston Center
Tue 07:23:24 PM 41.1006 -73.6436 33° Northeast 354 407 15,300 1,488 Climbing Boston Center
Tue 07:24:24 PM 41.1903 -73.5656 33° Northeast 359 413 17,000 1,548 Climbing Boston Center
Tue 07:25:28 PM 41.2731 -73.4942 33° Northeast 357 411 18,500 1,403 Climbing Boston Center
Tue 07:26:28 PM 41.3472 -73.4306 33° Northeast 357 411 19,900 1,230 Climbing Boston Center
Tue 07:27:30 PM 41.4367 -73.3758 25° Northeast 364 419 21,000 537 Climbing Boston Center
Tue 07:28:31 PM 41.5444 -73.3733 North 358 412 21,000  Level Boston Center
Tue 07:29:32 PM 41.6517 -73.3714 North 380 437 21,000  Level Boston Center
Tue 07:30:32 PM 41.7572 -73.3681 North 380 437 21,000  Level Boston Center
Tue 07:31:36 PM 41.8606 -73.3653 North 373 429 21,000  Level Boston Center
Tue 07:32:37 PM 41.9658 -73.3636 North 377 434 21,000  Level Boston Center
Tue 07:33:38 PM 42.0875 -73.3611 North 388 447 21,000  Level Boston Center
Tue 07:35:00 PM 42.1636 -73.2191 54° Northeast  Level Estimated
Tue 07:36:40 PM 42.4289 -73.3556 54° Northeast 394 453 21,000  Level Boston Center
Tue 07:38:00 PM 42.4901 -73.2151 59° Northeast  Level FlightAware Approximate
Tue 07:38:44 PM 42.6222 -73.2211 59° Northeast 433 498 21,000  Level Boston Center
Tue 07:39:45 PM 42.6842 -73.0750 60° Northeast 441 507 21,000  Level Boston Center
Tue 07:40:48 PM 42.7469 -72.9222 61° Northeast 439 505 21,000  Level Boston Center
Tue 07:41:48 PM 42.8072 -72.7778 60° Northeast 439 505 21,000  Level Boston Center
Tue 07:42:50 PM 42.8664 -72.6331 61° Northeast 439 505 21,000  Level Boston Center
Tue 07:43:51 PM 42.9247 -72.4931 60° Northeast 438 504 21,000  Level Boston Center
Tue 07:44:51 PM 42.9844 -72.3481 61° Northeast 438 504 21,000  Level Boston Center
Tue 07:45:53 PM 43.0425 -72.1997 62° Northeast 443 510 21,000  Level Boston Center
Tue 07:46:54 PM 43.1003 -72.0531 62° Northeast 441 507 21,000  Level Boston Center
Tue 07:47:56 PM 43.1603 -71.9103 60° Northeast 437 503 21,000 -347 Level Boston Center
Tue 07:48:55 PM 43.2147 -71.7656 63° Northeast 430 495 20,300 -1,672 Descending Boston Center
Tue 07:49:58 PM 43.2847 -71.5942 61° Northeast 425 489 17,600 -2,459 Descending Boston Center
Tue 07:50:57 PM 43.3389 -71.4578 61° Northeast 411 473 15,300 -2,164 Descending Boston Center
Tue 07:52:00 PM 43.3914 -71.3253 61° Northeast 398 458 13,200 -1,776 Descending Boston Center
Tue 07:53:02 PM 43.4422 -71.1964 61° Northeast 387 445 11,600 -1,073 Descending Boston Center
Tue 07:54:03 PM 43.4875 -71.0525 67° East 382 440 11,000 -397 Descending Boston Center
Tue 07:55:03 PM 43.5233 -70.9167 70° East 379 436 10,800 -541 Descending Boston Center
Tue 07:56:05 PM 43.5358 -70.7989 82° East 312 359 9,900 -934 Descending Boston Center
Tue 07:57:05 PM 43.5317 -70.6842 93° East 300 345 8,900 -1,438 Descending Boston Center
Tue 07:58:06 PM 43.5256 -70.5681 94° East 285 328 7,000 -1,659 Descending Boston Center
Tue 07:59:08 PM 43.5203 -70.4656 94° East 271 312 5,500 -1,500 Descending Boston Center
Tue 08:00:10 PM 43.5181 -70.3697 92° East 256 295 3,900 -1,230 Descending Boston Center
Tue 08:01:10 PM 43.5381 -70.2814 73° East 242 278 3,000 -492 Descending Boston Center
Tue 08:02:12 PM 43.5636 -70.1911 69° East 232 267 2,900 -537 Descending Boston Center
Tue 08:03:13 PM 43.6117 -70.2011 351° North 181 208 1,900 -885 Descending Boston Center
Tue 08:04:14 PM 43.6383 -70.2350 317° Northwest 133 153 1,100 -689 Descending Boston Center
Tue 08:05:15 PM 43.6436 -70.2786 280° West 118 136 500 -446 Descending Boston Center
Tue 08:06:15 PM 43.6464 -70.3203 275° West 119 137 200 -300 Descending Boston Center

Login

Don't have an account? Register now (free) for customized features, flight alerts, and more!